sensor_id;sensor_type;location;lat;lon;timestamp;P1;durP1;ratioP1;P2;durP2;ratioP2
25938;SDS011;13739;51.172;4.466;2022-07-23T00:01:36;8.73;;;5.55;;
25938;SDS011;13739;51.172;4.466;2022-07-23T00:04:03;8.15;;;4.80;;
25938;SDS011;13739;51.172;4.466;2022-07-23T00:06:28;9.18;;;5.03;;
25938;SDS011;13739;51.172;4.466;2022-07-23T00:08:54;8.90;;;5.00;;
25938;SDS011;13739;51.172;4.466;2022-07-23T00:11:19;7.68;;;4.63;;
25938;SDS011;13739;51.172;4.466;2022-07-23T00:13:47;11.02;;;5.40;;
25938;SDS011;13739;51.172;4.466;2022-07-23T00:16:15;7.95;;;5.43;;
25938;SDS011;13739;51.172;4.466;2022-07-23T00:18:41;11.00;;;5.03;;
25938;SDS011;13739;51.172;4.466;2022-07-23T00:21:10;10.35;;;5.53;;
25938;SDS011;13739;51.172;4.466;2022-07-23T00:23:35;10.00;;;5.05;;
25938;SDS011;13739;51.172;4.466;2022-07-23T00:26:01;7.93;;;4.82;;
25938;SDS011;13739;51.172;4.466;2022-07-23T00:28:26;8.75;;;5.13;;
25938;SDS011;13739;51.172;4.466;2022-07-23T00:30:52;8.10;;;4.70;;
25938;SDS011;13739;51.172;4.466;2022-07-23T00:33:18;9.27;;;5.05;;
25938;SDS011;13739;51.172;4.466;2022-07-23T00:35:44;7.90;;;5.00;;
25938;SDS011;13739;51.172;4.466;2022-07-23T00:38:10;10.82;;;5.40;;
25938;SDS011;13739;51.172;4.466;2022-07-23T00:40:37;10.35;;;5.30;;
25938;SDS011;13739;51.172;4.466;2022-07-23T00:43:03;7.60;;;4.65;;
25938;SDS011;13739;51.172;4.466;2022-07-23T00:45:30;10.77;;;5.30;;
25938;SDS011;13739;51.172;4.466;2022-07-23T00:47:56;8.13;;;4.72;;
25938;SDS011;13739;51.172;4.466;2022-07-23T00:50:24;8.80;;;5.22;;
25938;SDS011;13739;51.172;4.466;2022-07-23T00:52:50;8.70;;;5.25;;
25938;SDS011;13739;51.172;4.466;2022-07-23T00:55:16;7.93;;;4.72;;
25938;SDS011;13739;51.172;4.466;2022-07-23T00:57:42;8.20;;;4.80;;
25938;SDS011;13739;51.172;4.466;2022-07-23T01:00:13;8.15;;;4.85;;
25938;SDS011;13739;51.172;4.466;2022-07-23T01:02:42;8.45;;;4.78;;
25938;SDS011;13739;51.172;4.466;2022-07-23T01:05:08;8.32;;;4.75;;
25938;SDS011;13739;51.172;4.466;2022-07-23T01:07:34;9.55;;;4.70;;
25938;SDS011;13739;51.172;4.466;2022-07-23T01:10:01;10.10;;;4.63;;
25938;SDS011;13739;51.172;4.466;2022-07-23T01:12:27;7.38;;;4.50;;
25938;SDS011;13739;51.172;4.466;2022-07-23T01:14:54;9.00;;;5.05;;
25938;SDS011;13739;51.172;4.466;2022-07-23T01:17:23;10.52;;;5.10;;
25938;SDS011;13739;51.172;4.466;2022-07-23T01:19:49;10.98;;;5.15;;
25938;SDS011;13739;51.172;4.466;2022-07-23T01:22:15;10.55;;;5.25;;
25938;SDS011;13739;51.172;4.466;2022-07-23T01:24:43;8.75;;;5.10;;
25938;SDS011;13739;51.172;4.466;2022-07-23T01:27:12;12.60;;;5.00;;
25938;SDS011;13739;51.172;4.466;2022-07-23T01:29:38;8.52;;;5.10;;
25938;SDS011;13739;51.172;4.466;2022-07-23T01:32:04;9.35;;;5.15;;
25938;SDS011;13739;51.172;4.466;2022-07-23T01:34:31;11.57;;;5.72;;
25938;SDS011;13739;51.172;4.466;2022-07-23T01:36:57;8.82;;;5.45;;
25938;SDS011;13739;51.172;4.466;2022-07-23T01:39:23;7.90;;;4.53;;
25938;SDS011;13739;51.172;4.466;2022-07-23T01:41:48;12.45;;;5.28;;
25938;SDS011;13739;51.172;4.466;2022-07-23T01:44:14;11.50;;;5.65;;
25938;SDS011;13739;51.172;4.466;2022-07-23T01:46:40;9.77;;;5.32;;
25938;SDS011;13739;51.172;4.466;2022-07-23T01:49:06;9.40;;;5.75;;
25938;SDS011;13739;51.172;4.466;2022-07-23T01:51:31;11.50;;;5.55;;
25938;SDS011;13739;51.172;4.466;2022-07-23T01:53:57;8.80;;;5.47;;
25938;SDS011;13739;51.172;4.466;2022-07-23T01:56:22;13.38;;;4.95;;
25938;SDS011;13739;51.172;4.466;2022-07-23T01:58:48;10.95;;;4.97;;
25938;SDS011;13739;51.172;4.466;2022-07-23T02:01:14;10.70;;;5.57;;
25938;SDS011;13739;51.172;4.466;2022-07-23T02:03:40;10.48;;;5.18;;
25938;SDS011;13739;51.172;4.466;2022-07-23T02:06:06;10.05;;;5.68;;
25938;SDS011;13739;51.172;4.466;2022-07-23T02:08:31;10.30;;;5.32;;
25938;SDS011;13739;51.172;4.466;2022-07-23T02:10:57;10.60;;;5.28;;
25938;SDS011;13739;51.172;4.466;2022-07-23T02:13:22;9.85;;;5.18;;
25938;SDS011;13739;51.172;4.466;2022-07-23T02:15:48;7.40;;;5.05;;
25938;SDS011;13739;51.172;4.466;2022-07-23T02:18:14;9.32;;;5.60;;
25938;SDS011;13739;51.172;4.466;2022-07-23T02:20:39;8.15;;;4.88;;
25938;SDS011;13739;51.172;4.466;2022-07-23T02:23:06;10.70;;;5.40;;
25938;SDS011;13739;51.172;4.466;2022-07-23T02:25:32;10.38;;;5.10;;
25938;SDS011;13739;51.172;4.466;2022-07-23T02:27:58;10.75;;;6.00;;
25938;SDS011;13739;51.172;4.466;2022-07-23T02:30:24;8.77;;;5.22;;
25938;SDS011;13739;51.172;4.466;2022-07-23T02:32:50;9.98;;;5.30;;
25938;SDS011;13739;51.172;4.466;2022-07-23T02:35:15;10.00;;;5.82;;
25938;SDS011;13739;51.172;4.466;2022-07-23T02:37:41;11.50;;;6.10;;
25938;SDS011;13739;51.172;4.466;2022-07-23T02:40:07;10.60;;;6.05;;
25938;SDS011;13739;51.172;4.466;2022-07-23T02:42:33;8.27;;;5.63;;
25938;SDS011;13739;51.172;4.466;2022-07-23T02:44:58;12.30;;;6.07;;
25938;SDS011;13739;51.172;4.466;2022-07-23T02:47:24;10.93;;;6.30;;
25938;SDS011;13739;51.172;4.466;2022-07-23T02:49:49;12.05;;;6.53;;
25938;SDS011;13739;51.172;4.466;2022-07-23T02:52:15;11.00;;;6.60;;
25938;SDS011;13739;51.172;4.466;2022-07-23T02:54:41;10.80;;;6.03;;
25938;SDS011;13739;51.172;4.466;2022-07-23T02:57:06;11.15;;;6.00;;
25938;SDS011;13739;51.172;4.466;2022-07-23T02:59:32;10.50;;;5.93;;
25938;SDS011;13739;51.172;4.466;2022-07-23T03:02:01;11.95;;;5.40;;
25938;SDS011;13739;51.172;4.466;2022-07-23T03:04:27;8.73;;;6.00;;
25938;SDS011;13739;51.172;4.466;2022-07-23T03:06:53;10.27;;;6.05;;
25938;SDS011;13739;51.172;4.466;2022-07-23T03:09:18;8.50;;;5.43;;
25938;SDS011;13739;51.172;4.466;2022-07-23T03:11:44;10.20;;;5.30;;
25938;SDS011;13739;51.172;4.466;2022-07-23T03:14:13;10.95;;;6.03;;
25938;SDS011;13739;51.172;4.466;2022-07-23T03:16:41;11.13;;;5.20;;
25938;SDS011;13739;51.172;4.466;2022-07-23T03:19:07;8.77;;;5.90;;
25938;SDS011;13739;51.172;4.466;2022-07-23T03:21:32;12.30;;;5.63;;
25938;SDS011;13739;51.172;4.466;2022-07-23T03:24:01;15.20;;;5.93;;
25938;SDS011;13739;51.172;4.466;2022-07-23T03:26:27;13.10;;;6.20;;
25938;SDS011;13739;51.172;4.466;2022-07-23T03:28:53;11.90;;;5.25;;
25938;SDS011;13739;51.172;4.466;2022-07-23T03:31:18;9.93;;;5.97;;
25938;SDS011;13739;51.172;4.466;2022-07-23T03:33:44;9.43;;;5.75;;
25938;SDS011;13739;51.172;4.466;2022-07-23T03:36:09;10.93;;;5.80;;
25938;SDS011;13739;51.172;4.466;2022-07-23T03:38:35;12.25;;;6.10;;
25938;SDS011;13739;51.172;4.466;2022-07-23T03:41:01;10.23;;;5.72;;
25938;SDS011;13739;51.172;4.466;2022-07-23T03:43:26;12.75;;;6.40;;
25938;SDS011;13739;51.172;4.466;2022-07-23T03:45:52;8.80;;;5.28;;
25938;SDS011;13739;51.172;4.466;2022-07-23T03:48:17;9.45;;;5.75;;
25938;SDS011;13739;51.172;4.466;2022-07-23T03:50:43;13.60;;;5.43;;
25938;SDS011;13739;51.172;4.466;2022-07-23T03:53:09;12.93;;;5.47;;
25938;SDS011;13739;51.172;4.466;2022-07-23T03:55:34;8.88;;;5.50;;
25938;SDS011;13739;51.172;4.466;2022-07-23T03:58:00;10.73;;;5.82;;
25938;SDS011;13739;51.172;4.466;2022-07-23T04:00:28;9.70;;;6.07;;
25938;SDS011;13739;51.172;4.466;2022-07-23T04:02:53;11.15;;;5.53;;
25938;SDS011;13739;51.172;4.466;2022-07-23T04:05:19;10.02;;;6.03;;
25938;SDS011;13739;51.172;4.466;2022-07-23T04:07:44;11.85;;;5.43;;
25938;SDS011;13739;51.172;4.466;2022-07-23T04:10:10;10.07;;;5.20;;
25938;SDS011;13739;51.172;4.466;2022-07-23T04:12:36;10.07;;;5.53;;
25938;SDS011;13739;51.172;4.466;2022-07-23T04:15:01;10.05;;;5.53;;
25938;SDS011;13739;51.172;4.466;2022-07-23T04:17:27;11.10;;;5.75;;
25938;SDS011;13739;51.172;4.466;2022-07-23T04:19:53;9.18;;;5.75;;
25938;SDS011;13739;51.172;4.466;2022-07-23T04:22:19;9.65;;;5.95;;
25938;SDS011;13739;51.172;4.466;2022-07-23T04:24:45;8.50;;;5.60;;
25938;SDS011;13739;51.172;4.466;2022-07-23T04:27:11;10.63;;;6.13;;
25938;SDS011;13739;51.172;4.466;2022-07-23T04:29:36;8.15;;;5.57;;
25938;SDS011;13739;51.172;4.466;2022-07-23T04:32:02;9.20;;;5.55;;
25938;SDS011;13739;51.172;4.466;2022-07-23T04:34:28;15.80;;;5.55;;
25938;SDS011;13739;51.172;4.466;2022-07-23T04:36:54;10.10;;;5.97;;
25938;SDS011;13739;51.172;4.466;2022-07-23T04:39:19;9.05;;;5.47;;
25938;SDS011;13739;51.172;4.466;2022-07-23T04:41:45;11.10;;;6.35;;
25938;SDS011;13739;51.172;4.466;2022-07-23T04:44:11;11.23;;;5.82;;
25938;SDS011;13739;51.172;4.466;2022-07-23T04:46:36;12.85;;;6.20;;
25938;SDS011;13739;51.172;4.466;2022-07-23T04:49:02;12.45;;;5.88;;
25938;SDS011;13739;51.172;4.466;2022-07-23T04:51:28;10.48;;;5.78;;
25938;SDS011;13739;51.172;4.466;2022-07-23T04:53:54;12.52;;;6.13;;
25938;SDS011;13739;51.172;4.466;2022-07-23T04:56:20;14.20;;;5.68;;
25938;SDS011;13739;51.172;4.466;2022-07-23T04:58:45;10.95;;;6.00;;
25938;SDS011;13739;51.172;4.466;2022-07-23T05:01:13;12.00;;;6.15;;
25938;SDS011;13739;51.172;4.466;2022-07-23T05:03:38;11.80;;;6.35;;
25938;SDS011;13739;51.172;4.466;2022-07-23T05:06:06;10.45;;;6.05;;
25938;SDS011;13739;51.172;4.466;2022-07-23T05:08:32;9.68;;;5.93;;
25938;SDS011;13739;51.172;4.466;2022-07-23T05:10:58;13.55;;;6.00;;
25938;SDS011;13739;51.172;4.466;2022-07-23T05:13:23;11.50;;;6.07;;
25938;SDS011;13739;51.172;4.466;2022-07-23T05:15:51;12.98;;;5.85;;
25938;SDS011;13739;51.172;4.466;2022-07-23T05:18:17;9.18;;;5.65;;
25938;SDS011;13739;51.172;4.466;2022-07-23T05:20:43;12.50;;;6.30;;
25938;SDS011;13739;51.172;4.466;2022-07-23T05:23:08;11.70;;;6.47;;
25938;SDS011;13739;51.172;4.466;2022-07-23T05:25:35;10.73;;;6.18;;
25938;SDS011;13739;51.172;4.466;2022-07-23T05:28:00;9.73;;;6.50;;
25938;SDS011;13739;51.172;4.466;2022-07-23T05:30:26;10.05;;;6.55;;
25938;SDS011;13739;51.172;4.466;2022-07-23T05:32:52;12.88;;;7.10;;
25938;SDS011;13739;51.172;4.466;2022-07-23T05:35:17;13.25;;;7.07;;
25938;SDS011;13739;51.172;4.466;2022-07-23T05:37:43;11.13;;;6.35;;
25938;SDS011;13739;51.172;4.466;2022-07-23T05:40:09;15.23;;;6.68;;
25938;SDS011;13739;51.172;4.466;2022-07-23T05:42:36;9.80;;;6.25;;
25938;SDS011;13739;51.172;4.466;2022-07-23T05:45:03;12.27;;;6.22;;
25938;SDS011;13739;51.172;4.466;2022-07-23T05:47:29;10.45;;;6.93;;
25938;SDS011;13739;51.172;4.466;2022-07-23T05:50:03;12.35;;;6.78;;
25938;SDS011;13739;51.172;4.466;2022-07-23T05:52:29;11.95;;;6.55;;
25938;SDS011;13739;51.172;4.466;2022-07-23T05:54:55;10.63;;;6.57;;
25938;SDS011;13739;51.172;4.466;2022-07-23T05:57:20;13.02;;;6.47;;
25938;SDS011;13739;51.172;4.466;2022-07-23T05:59:46;11.38;;;6.10;;
25938;SDS011;13739;51.172;4.466;2022-07-23T06:02:12;12.93;;;7.20;;
25938;SDS011;13739;51.172;4.466;2022-07-23T06:04:37;10.95;;;6.72;;
25938;SDS011;13739;51.172;4.466;2022-07-23T06:07:03;9.63;;;6.00;;
25938;SDS011;13739;51.172;4.466;2022-07-23T06:09:28;12.73;;;6.32;;
25938;SDS011;13739;51.172;4.466;2022-07-23T06:11:54;10.93;;;5.95;;
25938;SDS011;13739;51.172;4.466;2022-07-23T06:14:23;13.05;;;6.55;;
25938;SDS011;13739;51.172;4.466;2022-07-23T06:16:49;11.18;;;6.35;;
25938;SDS011;13739;51.172;4.466;2022-07-23T06:19:14;14.23;;;6.03;;
25938;SDS011;13739;51.172;4.466;2022-07-23T06:21:40;12.93;;;6.47;;
25938;SDS011;13739;51.172;4.466;2022-07-23T06:24:06;8.98;;;6.07;;
25938;SDS011;13739;51.172;4.466;2022-07-23T06:26:31;14.13;;;6.50;;
25938;SDS011;13739;51.172;4.466;2022-07-23T06:28:57;11.63;;;6.40;;
25938;SDS011;13739;51.172;4.466;2022-07-23T06:31:23;11.32;;;6.78;;
25938;SDS011;13739;51.172;4.466;2022-07-23T06:33:48;12.50;;;7.35;;
25938;SDS011;13739;51.172;4.466;2022-07-23T06:36:15;14.25;;;6.20;;
25938;SDS011;13739;51.172;4.466;2022-07-23T06:38:40;8.90;;;6.00;;
25938;SDS011;13739;51.172;4.466;2022-07-23T06:41:07;8.80;;;5.32;;
25938;SDS011;13739;51.172;4.466;2022-07-23T06:43:33;10.07;;;6.00;;
25938;SDS011;13739;51.172;4.466;2022-07-23T06:45:59;10.48;;;5.13;;
25938;SDS011;13739;51.172;4.466;2022-07-23T06:48:24;9.23;;;5.50;;
25938;SDS011;13739;51.172;4.466;2022-07-23T06:50:50;9.02;;;5.03;;
25938;SDS011;13739;51.172;4.466;2022-07-23T06:53:17;8.43;;;5.32;;
25938;SDS011;13739;51.172;4.466;2022-07-23T06:55:43;9.85;;;6.03;;
25938;SDS011;13739;51.172;4.466;2022-07-23T06:58:08;8.63;;;5.18;;
25938;SDS011;13739;51.172;4.466;2022-07-23T07:00:35;10.25;;;5.45;;
25938;SDS011;13739;51.172;4.466;2022-07-23T07:03:03;9.80;;;5.78;;
25938;SDS011;13739;51.172;4.466;2022-07-23T07:05:29;10.25;;;5.63;;
25938;SDS011;13739;51.172;4.466;2022-07-23T07:07:55;11.20;;;4.72;;
25938;SDS011;13739;51.172;4.466;2022-07-23T07:10:20;9.00;;;4.63;;
25938;SDS011;13739;51.172;4.466;2022-07-23T07:12:46;7.22;;;4.60;;
25938;SDS011;13739;51.172;4.466;2022-07-23T07:15:12;10.15;;;4.80;;
25938;SDS011;13739;51.172;4.466;2022-07-23T07:17:38;6.95;;;4.80;;
25938;SDS011;13739;51.172;4.466;2022-07-23T07:20:04;8.18;;;4.80;;
25938;SDS011;13739;51.172;4.466;2022-07-23T07:22:30;7.05;;;4.35;;
25938;SDS011;13739;51.172;4.466;2022-07-23T07:24:56;9.93;;;4.68;;
25938;SDS011;13739;51.172;4.466;2022-07-23T07:27:22;8.18;;;4.30;;
25938;SDS011;13739;51.172;4.466;2022-07-23T07:29:47;6.65;;;4.43;;
25938;SDS011;13739;51.172;4.466;2022-07-23T07:32:13;7.28;;;4.28;;
25938;SDS011;13739;51.172;4.466;2022-07-23T07:34:38;10.27;;;5.03;;
25938;SDS011;13739;51.172;4.466;2022-07-23T07:37:04;11.07;;;5.20;;
25938;SDS011;13739;51.172;4.466;2022-07-23T07:39:30;7.70;;;4.40;;
25938;SDS011;13739;51.172;4.466;2022-07-23T07:41:55;6.47;;;4.30;;
25938;SDS011;13739;51.172;4.466;2022-07-23T07:44:21;10.65;;;4.95;;
25938;SDS011;13739;51.172;4.466;2022-07-23T07:46:47;8.25;;;3.65;;
25938;SDS011;13739;51.172;4.466;2022-07-23T07:49:12;7.47;;;4.32;;
25938;SDS011;13739;51.172;4.466;2022-07-23T07:51:38;8.13;;;4.30;;
25938;SDS011;13739;51.172;4.466;2022-07-23T07:54:03;7.72;;;4.55;;
25938;SDS011;13739;51.172;4.466;2022-07-23T07:56:29;8.63;;;4.55;;
25938;SDS011;13739;51.172;4.466;2022-07-23T07:58:55;9.20;;;4.30;;
25938;SDS011;13739;51.172;4.466;2022-07-23T08:01:20;6.43;;;4.22;;
25938;SDS011;13739;51.172;4.466;2022-07-23T08:03:46;7.70;;;4.60;;
25938;SDS011;13739;51.172;4.466;2022-07-23T08:06:12;9.48;;;5.15;;
25938;SDS011;13739;51.172;4.466;2022-07-23T08:08:37;7.03;;;3.88;;
25938;SDS011;13739;51.172;4.466;2022-07-23T08:11:03;10.75;;;4.40;;
25938;SDS011;13739;51.172;4.466;2022-07-23T08:13:29;6.75;;;4.30;;
25938;SDS011;13739;51.172;4.466;2022-07-23T08:15:54;6.05;;;3.72;;
25938;SDS011;13739;51.172;4.466;2022-07-23T08:18:20;6.65;;;4.07;;
25938;SDS011;13739;51.172;4.466;2022-07-23T08:20:45;7.95;;;4.28;;
25938;SDS011;13739;51.172;4.466;2022-07-23T08:23:11;7.78;;;4.30;;
25938;SDS011;13739;51.172;4.466;2022-07-23T08:25:38;7.63;;;3.92;;
25938;SDS011;13739;51.172;4.466;2022-07-23T08:28:09;7.15;;;3.95;;
25938;SDS011;13739;51.172;4.466;2022-07-23T08:30:35;7.13;;;4.32;;
25938;SDS011;13739;51.172;4.466;2022-07-23T08:33:03;12.00;;;5.15;;
25938;SDS011;13739;51.172;4.466;2022-07-23T08:35:40;10.52;;;5.43;;
25938;SDS011;13739;51.172;4.466;2022-07-23T08:40:39;7.90;;;4.57;;
25938;SDS011;13739;51.172;4.466;2022-07-23T08:43:08;8.43;;;4.50;;
25938;SDS011;13739;51.172;4.466;2022-07-23T08:45:35;5.45;;;3.72;;
25938;SDS011;13739;51.172;4.466;2022-07-23T08:48:04;9.57;;;4.07;;
25938;SDS011;13739;51.172;4.466;2022-07-23T08:50:32;8.43;;;4.53;;
25938;SDS011;13739;51.172;4.466;2022-07-23T08:52:59;8.63;;;4.32;;
25938;SDS011;13739;51.172;4.466;2022-07-23T08:55:27;6.43;;;3.67;;
25938;SDS011;13739;51.172;4.466;2022-07-23T08:57:53;6.28;;;3.20;;
25938;SDS011;13739;51.172;4.466;2022-07-23T09:00:20;6.00;;;4.00;;
25938;SDS011;13739;51.172;4.466;2022-07-23T09:02:46;9.23;;;3.20;;
25938;SDS011;13739;51.172;4.466;2022-07-23T09:05:13;5.53;;;3.45;;
25938;SDS011;13739;51.172;4.466;2022-07-23T09:08:25;6.15;;;3.72;;
25938;SDS011;13739;51.172;4.466;2022-07-23T09:10:29;9.13;;;4.38;;
25938;SDS011;13739;51.172;4.466;2022-07-23T09:12:55;6.22;;;4.45;;
25938;SDS011;13739;51.172;4.466;2022-07-23T09:15:20;5.18;;;2.97;;
25938;SDS011;13739;51.172;4.466;2022-07-23T09:17:46;6.60;;;3.58;;
25938;SDS011;13739;51.172;4.466;2022-07-23T09:20:13;3.85;;;2.65;;
25938;SDS011;13739;51.172;4.466;2022-07-23T09:22:44;7.47;;;3.45;;
25938;SDS011;13739;51.172;4.466;2022-07-23T09:25:15;6.03;;;3.38;;
25938;SDS011;13739;51.172;4.466;2022-07-23T09:27:53;5.88;;;2.60;;
25938;SDS011;13739;51.172;4.466;2022-07-23T09:30:25;5.20;;;2.78;;
25938;SDS011;13739;51.172;4.466;2022-07-23T09:33:05;4.65;;;2.92;;
25938;SDS011;13739;51.172;4.466;2022-07-23T09:35:55;5.32;;;3.28;;
25938;SDS011;13739;51.172;4.466;2022-07-23T09:38:22;5.60;;;3.30;;
25938;SDS011;13739;51.172;4.466;2022-07-23T09:41:04;5.40;;;3.35;;
25938;SDS011;13739;51.172;4.466;2022-07-23T09:43:31;7.07;;;3.60;;
25938;SDS011;13739;51.172;4.466;2022-07-23T09:48:52;4.22;;;2.60;;
25938;SDS011;13739;51.172;4.466;2022-07-23T09:51:18;4.32;;;2.53;;
25938;SDS011;13739;51.172;4.466;2022-07-23T09:54:02;4.93;;;2.63;;
25938;SDS011;13739;51.172;4.466;2022-07-23T09:56:28;4.95;;;2.90;;
25938;SDS011;13739;51.172;4.466;2022-07-23T09:58:54;5.78;;;2.70;;
25938;SDS011;13739;51.172;4.466;2022-07-23T10:01:36;4.88;;;2.47;;
25938;SDS011;13739;51.172;4.466;2022-07-23T10:04:02;4.30;;;2.60;;
25938;SDS011;13739;51.172;4.466;2022-07-23T10:06:28;3.78;;;2.50;;
25938;SDS011;13739;51.172;4.466;2022-07-23T10:08:56;4.03;;;2.25;;
25938;SDS011;13739;51.172;4.466;2022-07-23T10:11:24;5.15;;;2.75;;
25938;SDS011;13739;51.172;4.466;2022-07-23T10:13:51;5.22;;;2.50;;
25938;SDS011;13739;51.172;4.466;2022-07-23T10:16:20;4.32;;;2.50;;
25938;SDS011;13739;51.172;4.466;2022-07-23T10:18:46;4.40;;;2.50;;
25938;SDS011;13739;51.172;4.466;2022-07-23T10:21:15;3.25;;;2.03;;
25938;SDS011;13739;51.172;4.466;2022-07-23T10:24:01;4.07;;;2.38;;
25938;SDS011;13739;51.172;4.466;2022-07-23T10:26:49;4.45;;;2.30;;
25938;SDS011;13739;51.172;4.466;2022-07-23T10:29:36;2.83;;;2.13;;
25938;SDS011;13739;51.172;4.466;2022-07-23T10:32:37;6.28;;;2.40;;
25938;SDS011;13739;51.172;4.466;2022-07-23T10:35:13;4.28;;;2.40;;
25938;SDS011;13739;51.172;4.466;2022-07-23T10:37:51;5.25;;;2.08;;
25938;SDS011;13739;51.172;4.466;2022-07-23T10:40:24;4.05;;;2.00;;
25938;SDS011;13739;51.172;4.466;2022-07-23T10:42:51;4.07;;;1.70;;
25938;SDS011;13739;51.172;4.466;2022-07-23T10:47:52;2.15;;;1.52;;
25938;SDS011;13739;51.172;4.466;2022-07-23T10:53:20;2.15;;;1.23;;
25938;SDS011;13739;51.172;4.466;2022-07-23T10:55:49;3.92;;;1.65;;
25938;SDS011;13739;51.172;4.466;2022-07-23T10:58:20;3.30;;;1.83;;
25938;SDS011;13739;51.172;4.466;2022-07-23T11:00:47;3.90;;;1.60;;
25938;SDS011;13739;51.172;4.466;2022-07-23T11:03:33;2.40;;;1.45;;
25938;SDS011;13739;51.172;4.466;2022-07-23T11:06:02;3.53;;;1.77;;
25938;SDS011;13739;51.172;4.466;2022-07-23T11:08:28;2.88;;;1.73;;
25938;SDS011;13739;51.172;4.466;2022-07-23T11:13:29;3.13;;;1.70;;
25938;SDS011;13739;51.172;4.466;2022-07-23T11:19:08;3.25;;;1.90;;
25938;SDS011;13739;51.172;4.466;2022-07-23T11:24:04;3.40;;;1.90;;
25938;SDS011;13739;51.172;4.466;2022-07-23T11:26:44;2.33;;;1.60;;
25938;SDS011;13739;51.172;4.466;2022-07-23T11:31:57;2.40;;;1.70;;
25938;SDS011;13739;51.172;4.466;2022-07-23T11:34:34;3.33;;;1.45;;
25938;SDS011;13739;51.172;4.466;2022-07-23T11:37:04;1.80;;;1.30;;
25938;SDS011;13739;51.172;4.466;2022-07-23T11:39:35;1.70;;;1.40;;
25938;SDS011;13739;51.172;4.466;2022-07-23T11:42:01;2.13;;;1.35;;
25938;SDS011;13739;51.172;4.466;2022-07-23T11:44:35;2.00;;;1.08;;
25938;SDS011;13739;51.172;4.466;2022-07-23T11:47:06;2.97;;;1.60;;
25938;SDS011;13739;51.172;4.466;2022-07-23T11:49:33;1.67;;;1.05;;
25938;SDS011;13739;51.172;4.466;2022-07-23T11:54:33;1.42;;;1.15;;
25938;SDS011;13739;51.172;4.466;2022-07-23T11:57:00;2.95;;;1.33;;
25938;SDS011;13739;51.172;4.466;2022-07-23T11:59:28;2.08;;;1.30;;
25938;SDS011;13739;51.172;4.466;2022-07-23T12:01:58;2.25;;;1.35;;
25938;SDS011;13739;51.172;4.466;2022-07-23T12:04:36;1.70;;;1.30;;
25938;SDS011;13739;51.172;4.466;2022-07-23T12:07:02;2.22;;;1.20;;
25938;SDS011;13739;51.172;4.466;2022-07-23T12:09:28;2.13;;;1.17;;
25938;SDS011;13739;51.172;4.466;2022-07-23T12:12:00;1.40;;;1.10;;
25938;SDS011;13739;51.172;4.466;2022-07-23T12:14:26;2.03;;;1.33;;
25938;SDS011;13739;51.172;4.466;2022-07-23T12:17:26;1.75;;;1.30;;
25938;SDS011;13739;51.172;4.466;2022-07-23T12:19:45;3.30;;;1.20;;
25938;SDS011;13739;51.172;4.466;2022-07-23T12:22:11;2.47;;;1.38;;
25938;SDS011;13739;51.172;4.466;2022-07-23T12:24:55;2.33;;;1.10;;
25938;SDS011;13739;51.172;4.466;2022-07-23T12:27:25;2.05;;;1.33;;
25938;SDS011;13739;51.172;4.466;2022-07-23T12:29:52;2.22;;;1.58;;
25938;SDS011;13739;51.172;4.466;2022-07-23T12:32:22;2.45;;;1.40;;
25938;SDS011;13739;51.172;4.466;2022-07-23T12:35:11;1.60;;;1.27;;
25938;SDS011;13739;51.172;4.466;2022-07-23T12:37:38;2.38;;;1.20;;
25938;SDS011;13739;51.172;4.466;2022-07-23T12:40:18;2.60;;;1.30;;
25938;SDS011;13739;51.172;4.466;2022-07-23T12:42:46;1.50;;;1.17;;
25938;SDS011;13739;51.172;4.466;2022-07-23T12:45:13;1.27;;;1.10;;
25938;SDS011;13739;51.172;4.466;2022-07-23T12:47:56;1.65;;;1.23;;
25938;SDS011;13739;51.172;4.466;2022-07-23T12:50:39;1.83;;;1.15;;
25938;SDS011;13739;51.172;4.466;2022-07-23T12:53:26;1.15;;;1.02;;
25938;SDS011;13739;51.172;4.466;2022-07-23T12:55:56;2.63;;;1.17;;
25938;SDS011;13739;51.172;4.466;2022-07-23T12:58:24;1.65;;;1.25;;
25938;SDS011;13739;51.172;4.466;2022-07-23T13:00:58;1.85;;;1.15;;
25938;SDS011;13739;51.172;4.466;2022-07-23T13:03:26;1.95;;;1.10;;
25938;SDS011;13739;51.172;4.466;2022-07-23T13:05:57;1.88;;;1.10;;
25938;SDS011;13739;51.172;4.466;2022-07-23T13:08:25;1.85;;;1.23;;
25938;SDS011;13739;51.172;4.466;2022-07-23T13:10:51;1.83;;;1.20;;
25938;SDS011;13739;51.172;4.466;2022-07-23T13:13:22;2.00;;;1.48;;
25938;SDS011;13739;51.172;4.466;2022-07-23T13:15:49;3.22;;;1.70;;
25938;SDS011;13739;51.172;4.466;2022-07-23T13:18:15;3.28;;;1.67;;
25938;SDS011;13739;51.172;4.466;2022-07-23T13:20:42;2.53;;;1.70;;
25938;SDS011;13739;51.172;4.466;2022-07-23T13:23:08;2.42;;;1.80;;
25938;SDS011;13739;51.172;4.466;2022-07-23T13:25:34;3.28;;;1.70;;
25938;SDS011;13739;51.172;4.466;2022-07-23T13:28:00;2.38;;;1.50;;
25938;SDS011;13739;51.172;4.466;2022-07-23T13:30:25;2.58;;;1.60;;
25938;SDS011;13739;51.172;4.466;2022-07-23T13:32:51;2.92;;;1.40;;
25938;SDS011;13739;51.172;4.466;2022-07-23T13:35:17;2.88;;;1.70;;
25938;SDS011;13739;51.172;4.466;2022-07-23T13:37:43;2.55;;;1.70;;
25938;SDS011;13739;51.172;4.466;2022-07-23T13:40:09;3.13;;;1.40;;
25938;SDS011;13739;51.172;4.466;2022-07-23T13:42:35;2.45;;;1.55;;
25938;SDS011;13739;51.172;4.466;2022-07-23T13:45:02;2.08;;;1.70;;
25938;SDS011;13739;51.172;4.466;2022-07-23T13:47:28;1.90;;;1.65;;
25938;SDS011;13739;51.172;4.466;2022-07-23T13:49:54;2.33;;;1.80;;
25938;SDS011;13739;51.172;4.466;2022-07-23T13:52:20;2.67;;;1.38;;
25938;SDS011;13739;51.172;4.466;2022-07-23T13:54:45;2.47;;;1.35;;
25938;SDS011;13739;51.172;4.466;2022-07-23T13:57:11;2.42;;;1.35;;
25938;SDS011;13739;51.172;4.466;2022-07-23T13:59:37;2.60;;;1.60;;
25938;SDS011;13739;51.172;4.466;2022-07-23T14:02:02;2.58;;;1.60;;
25938;SDS011;13739;51.172;4.466;2022-07-23T14:04:29;2.90;;;1.83;;
25938;SDS011;13739;51.172;4.466;2022-07-23T14:06:55;2.70;;;1.45;;
25938;SDS011;13739;51.172;4.466;2022-07-23T14:09:20;1.95;;;1.40;;
25938;SDS011;13739;51.172;4.466;2022-07-23T14:11:47;4.32;;;1.67;;
25938;SDS011;13739;51.172;4.466;2022-07-23T14:14:12;3.03;;;1.55;;
25938;SDS011;13739;51.172;4.466;2022-07-23T14:16:38;2.58;;;1.52;;
25938;SDS011;13739;51.172;4.466;2022-07-23T14:19:04;2.40;;;1.60;;
25938;SDS011;13739;51.172;4.466;2022-07-23T14:21:29;2.97;;;1.80;;
25938;SDS011;13739;51.172;4.466;2022-07-23T14:23:55;2.08;;;1.50;;
25938;SDS011;13739;51.172;4.466;2022-07-23T14:26:21;3.50;;;1.75;;
25938;SDS011;13739;51.172;4.466;2022-07-23T14:28:46;2.95;;;1.60;;
25938;SDS011;13739;51.172;4.466;2022-07-23T14:31:12;2.90;;;1.70;;
25938;SDS011;13739;51.172;4.466;2022-07-23T14:33:38;2.58;;;1.80;;
25938;SDS011;13739;51.172;4.466;2022-07-23T14:36:03;2.33;;;1.80;;
25938;SDS011;13739;51.172;4.466;2022-07-23T14:38:29;4.85;;;2.13;;
25938;SDS011;13739;51.172;4.466;2022-07-23T14:40:55;2.70;;;2.00;;
25938;SDS011;13739;51.172;4.466;2022-07-23T14:43:22;2.90;;;2.00;;
25938;SDS011;13739;51.172;4.466;2022-07-23T14:45:48;2.67;;;1.80;;
25938;SDS011;13739;51.172;4.466;2022-07-23T14:48:14;3.47;;;1.98;;
25938;SDS011;13739;51.172;4.466;2022-07-23T14:50:39;3.97;;;2.85;;
25938;SDS011;13739;51.172;4.466;2022-07-23T14:53:05;2.80;;;1.80;;
25938;SDS011;13739;51.172;4.466;2022-07-23T14:55:31;2.90;;;2.10;;
25938;SDS011;13739;51.172;4.466;2022-07-23T14:57:57;3.20;;;2.00;;
25938;SDS011;13739;51.172;4.466;2022-07-23T15:00:23;3.00;;;1.98;;
25938;SDS011;13739;51.172;4.466;2022-07-23T15:02:48;3.22;;;2.13;;
25938;SDS011;13739;51.172;4.466;2022-07-23T15:05:14;3.63;;;2.28;;
25938;SDS011;13739;51.172;4.466;2022-07-23T15:07:40;4.60;;;2.17;;
25938;SDS011;13739;51.172;4.466;2022-07-23T15:10:06;3.65;;;2.50;;